Terminal Aerodrome Forecast
Issued by NWS Sterling, VA

Current Version | Previous Version | Text Only | Print | Product List | Glossary Off
Versions: 1 2 3 4 5 6 7 8 9 10 11 12 13 14 15 16 17 18 19 20 21

855
FTUS41 KLWX 211728
TAFDCA
TAF
KDCA 211728Z 2118/2218 34005KT P6SM BKN045
     FM212000 32006KT P6SM SCT050
     FM220400 29004KT P6SM BKN100
     FM220800 33010G18KT P6SM BKN050
     FM221000 34013G25KT P6SM FEW060=

USA.gov is the U.S. government's official web portal to all federal, state and local government web resources and services.